createdAt,value
2023-04-15T00:00:30.988Z,10.93
2023-04-15T00:03:02.361Z,8.80
2023-04-15T00:05:43.821Z,9.33
2023-04-15T00:08:13.845Z,10.40
2023-04-15T00:10:48.755Z,11.70
2023-04-15T00:13:24.969Z,10.97
2023-04-15T00:15:57.204Z,11.73
2023-04-15T00:18:31.918Z,10.90
2023-04-15T00:21:03.746Z,11.83
2023-04-15T00:23:37.499Z,11.33
2023-04-15T00:26:14.682Z,11.80
2023-04-15T00:28:50.959Z,12.70
2023-04-15T00:31:18.951Z,12.23
2023-04-15T00:33:46.849Z,12.17
2023-04-15T00:36:17.034Z,11.63
2023-04-15T00:38:46.271Z,12.10
2023-04-15T00:41:19.339Z,12.93
2023-04-15T00:43:52.631Z,13.70
2023-04-15T00:46:25.692Z,14.13
2023-04-15T00:49:05.854Z,13.23
2023-04-15T00:51:38.863Z,10.63
2023-04-15T00:54:08.978Z,12.47
2023-04-15T00:56:43.864Z,12.27
2023-04-15T00:59:16.828Z,13.53
2023-04-15T01:01:49.214Z,15.43
2023-04-15T01:04:25.367Z,14.77
2023-04-15T01:07:01.164Z,10.97
2023-04-15T01:12:19.679Z,13.03
2023-04-15T01:14:56.139Z,14.80
2023-04-15T01:17:25.341Z,15.17
2023-04-15T01:19:53.373Z,16.47
2023-04-15T01:22:22.092Z,18.60
2023-04-15T01:25:01.110Z,15.83
2023-04-15T01:27:29.023Z,14.83
2023-04-15T01:30:02.414Z,18.47
2023-04-15T01:32:36.730Z,14.60
2023-04-15T01:35:09.208Z,14.97
2023-04-15T01:37:41.105Z,15.00
2023-04-15T01:40:15.699Z,16.07
2023-04-15T01:42:49.532Z,17.40
2023-04-15T01:45:23.359Z,18.47
2023-04-15T01:47:52.480Z,16.70
2023-04-15T01:50:21.258Z,19.27
2023-04-15T01:52:50.327Z,23.93
2023-04-15T01:55:25.717Z,24.37
2023-04-15T01:58:15.187Z,25.70
2023-04-15T02:00:48.537Z,21.33
2023-04-15T02:03:16.165Z,27.60
2023-04-15T02:05:45.238Z,28.50
2023-04-15T02:08:15.737Z,35.83
2023-04-15T02:10:45.183Z,29.77
2023-04-15T02:13:25.948Z,42.30
2023-04-15T02:15:57.671Z,41.33
2023-04-15T02:18:25.344Z,44.83
2023-04-15T02:20:58.908Z,48.00
2023-04-15T02:23:29.064Z,43.63
2023-04-15T02:25:59.383Z,53.30
2023-04-15T02:28:31.012Z,46.00
2023-04-15T02:31:07.920Z,51.67
2023-04-15T02:33:36.051Z,60.03
2023-04-15T02:36:04.062Z,63.10
2023-04-15T02:38:32.341Z,58.10
2023-04-15T02:41:22.383Z,53.03
2023-04-15T02:43:59.758Z,64.37
2023-04-15T02:46:36.390Z,73.03
2023-04-15T02:49:11.633Z,70.07
2023-04-15T02:51:46.238Z,68.60
2023-04-15T02:54:43.228Z,94.13
2023-04-15T02:57:14.769Z,95.70
2023-04-15T02:59:50.829Z,97.50
2023-04-15T03:02:20.988Z,95.70
2023-04-15T03:07:45.988Z,101.20
2023-04-15T03:10:19.442Z,95.30
2023-04-15T03:12:55.708Z,92.77
2023-04-15T03:15:31.375Z,104.47
2023-04-15T03:18:07.231Z,139.63
2023-04-15T03:20:42.827Z,131.40
2023-04-15T03:23:18.587Z,102.37
2023-04-15T03:25:49.438Z,100.17
2023-04-15T03:31:06.354Z,119.10
2023-04-15T03:33:41.880Z,104.67
2023-04-15T03:36:13.313Z,97.63
2023-04-15T03:38:46.548Z,73.23
2023-04-15T03:41:16.397Z,89.73
2023-04-15T03:43:48.690Z,90.07
2023-04-15T03:46:25.185Z,121.37
2023-04-15T03:48:56.268Z,93.77
2023-04-15T03:51:25.326Z,88.80
2023-04-15T03:53:58.186Z,90.67
2023-04-15T03:56:27.667Z,96.57
2023-04-15T04:01:41.834Z,96.13
2023-04-15T04:04:10.763Z,104.13
2023-04-15T04:06:44.748Z,97.67
2023-04-15T04:09:24.943Z,106.10
2023-04-15T04:11:52.466Z,102.17
2023-04-15T04:14:31.169Z,119.30
2023-04-15T04:17:01.304Z,95.37
2023-04-15T04:19:31.762Z,83.57
2023-04-15T04:22:05.045Z,84.07
2023-04-15T04:24:33.616Z,82.10
2023-04-15T04:27:09.181Z,92.53
2023-04-15T04:32:29.126Z,111.87
2023-04-15T04:34:59.858Z,90.53
2023-04-15T04:37:27.563Z,131.70
2023-04-15T04:39:57.706Z,125.43
2023-04-15T04:42:26.262Z,135.37
2023-04-15T04:44:53.584Z,115.17
2023-04-15T04:47:22.517Z,99.00
2023-04-15T04:49:49.296Z,110.53
2023-04-15T04:52:18.568Z,118.80
2023-04-15T04:54:46.071Z,103.10
2023-04-15T04:57:14.098Z,129.13
2023-04-15T04:59:41.253Z,110.00
2023-04-15T05:02:08.793Z,134.43
2023-04-15T05:04:37.051Z,98.90
2023-04-15T05:07:03.694Z,130.77
2023-04-15T05:09:32.520Z,156.37
2023-04-15T05:11:59.449Z,129.87
2023-04-15T05:14:26.100Z,146.60
2023-04-15T05:16:52.559Z,121.67
2023-04-15T05:19:19.104Z,141.80
2023-04-15T05:21:47.338Z,144.03
2023-04-15T05:24:13.953Z,147.27
2023-04-15T05:26:40.911Z,120.83
2023-04-15T05:29:08.435Z,115.47
2023-04-15T05:31:35.067Z,125.80
2023-04-15T05:34:01.718Z,129.20
2023-04-15T05:36:28.803Z,117.30
2023-04-15T05:38:55.543Z,121.70
2023-04-15T05:41:22.230Z,102.60
2023-04-15T05:43:49.094Z,103.53
2023-04-15T05:46:15.963Z,96.53
2023-04-15T05:48:42.480Z,95.67
2023-04-15T05:51:09.475Z,105.93
2023-04-15T05:53:35.992Z,101.93
2023-04-15T05:56:02.588Z,81.53
2023-04-15T05:58:29.055Z,91.23
2023-04-15T06:00:55.715Z,96.23
2023-04-15T06:03:23.161Z,111.40
2023-04-15T06:05:50.949Z,95.53
2023-04-15T06:08:17.925Z,109.33
2023-04-15T06:10:44.403Z,92.57
2023-04-15T06:13:10.928Z,111.47
2023-04-15T06:15:37.731Z,125.83
2023-04-15T06:18:04.314Z,111.17
2023-04-15T06:20:31.097Z,112.50
2023-04-15T06:22:57.641Z,105.40
2023-04-15T06:25:24.183Z,118.53
2023-04-15T06:27:50.779Z,96.93
2023-04-15T06:30:17.316Z,92.77
2023-04-15T06:32:43.897Z,70.93
2023-04-15T06:35:10.517Z,84.33
2023-04-15T06:37:37.008Z,85.33
2023-04-15T06:40:05.287Z,75.07
2023-04-15T06:42:32.492Z,76.07
2023-04-15T06:44:59.032Z,69.50
2023-04-15T06:47:25.651Z,82.87
2023-04-15T06:49:52.140Z,67.27
2023-04-15T06:52:18.611Z,66.17
2023-04-15T06:54:45.116Z,74.80
2023-04-15T06:57:11.603Z,68.40
2023-04-15T06:59:38.150Z,80.87
2023-04-15T07:02:04.972Z,62.53
2023-04-15T07:04:31.615Z,59.53
2023-04-15T07:06:58.117Z,62.60
2023-04-15T07:09:24.870Z,58.80
2023-04-15T07:11:51.551Z,53.83
2023-04-15T07:14:18.576Z,61.93
2023-04-15T07:16:45.202Z,65.33
2023-04-15T07:19:11.966Z,59.93
2023-04-15T07:21:40.055Z,60.70
2023-04-15T07:24:08.937Z,60.13
2023-04-15T07:26:35.622Z,62.30
2023-04-15T07:29:02.327Z,56.87
2023-04-15T07:31:29.051Z,56.17
2023-04-15T07:33:55.623Z,48.90
2023-04-15T07:36:22.202Z,60.87
2023-04-15T07:38:49.079Z,53.43
2023-04-15T07:41:15.926Z,51.23
2023-04-15T07:43:43.419Z,52.30
2023-04-15T07:46:09.913Z,45.67
2023-04-15T07:48:37.552Z,47.40
2023-04-15T07:51:04.401Z,46.70
2023-04-15T07:53:31.396Z,46.13
2023-04-15T07:55:58.338Z,50.73
2023-04-15T07:58:25.170Z,47.03
2023-04-15T08:00:51.711Z,47.33
2023-04-15T08:03:38.295Z,45.07
2023-04-15T08:06:05.090Z,46.67
2023-04-15T08:08:32.154Z,48.57
2023-04-15T08:10:59.039Z,43.37
2023-04-15T08:13:26.411Z,47.33
2023-04-15T08:16:19.809Z,42.47
2023-04-15T08:18:47.787Z,43.40
2023-04-15T08:21:14.305Z,46.40
2023-04-15T08:23:47.823Z,49.30
2023-04-15T08:26:14.413Z,40.83
2023-04-15T08:28:41.670Z,40.47
2023-04-15T08:31:08.737Z,40.13
2023-04-15T08:33:35.454Z,38.30
2023-04-15T08:36:01.923Z,39.47
2023-04-15T08:38:28.401Z,37.10
2023-04-15T08:40:56.517Z,38.73
2023-04-15T08:43:31.231Z,32.90
2023-04-15T08:46:00.236Z,33.17
2023-04-15T08:48:28.902Z,36.63
2023-04-15T08:50:55.424Z,37.20
2023-04-15T08:53:22.031Z,37.57
2023-04-15T08:55:52.030Z,35.10
2023-04-15T08:58:19.885Z,33.63
2023-04-15T09:00:46.668Z,33.97
2023-04-15T09:03:23.245Z,33.30
2023-04-15T09:05:52.716Z,32.07
2023-04-15T09:08:19.845Z,32.63
2023-04-15T09:10:46.469Z,31.93
2023-04-15T09:13:13.770Z,33.70
2023-04-15T09:15:40.353Z,30.20
2023-04-15T09:18:07.171Z,29.77
2023-04-15T09:20:43.035Z,33.80
2023-04-15T09:23:17.520Z,30.40
2023-04-15T09:25:44.062Z,28.43
2023-04-15T09:28:11.272Z,28.27
2023-04-15T09:30:37.844Z,28.93
2023-04-15T09:33:08.308Z,26.67
2023-04-15T09:35:38.323Z,27.70
2023-04-15T09:38:09.832Z,26.70
2023-04-15T09:40:36.498Z,25.97
2023-04-15T09:43:07.567Z,28.63
2023-04-15T09:45:35.820Z,23.63
2023-04-15T09:48:27.318Z,24.83
2023-04-15T09:50:54.144Z,25.37
2023-04-15T09:53:22.133Z,23.93
2023-04-15T09:55:57.177Z,25.57
2023-04-15T09:58:31.388Z,23.97
2023-04-15T10:00:59.005Z,22.40
2023-04-15T10:03:27.714Z,23.13
2023-04-15T10:05:56.745Z,23.17
2023-04-15T10:08:25.275Z,21.37
2023-04-15T10:10:52.480Z,21.43
2023-04-15T10:13:20.782Z,21.00
2023-04-15T10:15:52.004Z,21.27
2023-04-15T10:18:21.747Z,22.33
2023-04-15T10:20:48.582Z,21.27
2023-04-15T10:23:15.665Z,23.00
2023-04-15T10:25:42.151Z,21.33
2023-04-15T10:28:09.053Z,19.33
2023-04-15T10:30:36.788Z,20.90
2023-04-15T10:33:04.411Z,19.07
2023-04-15T10:35:32.841Z,18.87
2023-04-15T10:37:59.801Z,17.77
2023-04-15T10:40:28.296Z,16.27
2023-04-15T10:42:56.495Z,17.10
2023-04-15T10:45:27.318Z,16.83
2023-04-15T10:47:58.084Z,15.83
2023-04-15T10:50:29.859Z,16.33
2023-04-15T10:52:57.056Z,15.90
2023-04-15T10:55:25.543Z,14.27
2023-04-15T10:57:58.525Z,14.20
2023-04-15T11:00:26.753Z,13.37
2023-04-15T11:02:56.525Z,14.17
2023-04-15T11:05:44.162Z,14.43
2023-04-15T11:08:11.251Z,13.47
2023-04-15T11:10:37.679Z,12.77
2023-04-15T11:13:06.035Z,14.30
2023-04-15T11:15:33.785Z,14.33
2023-04-15T11:18:00.242Z,13.33
2023-04-15T11:20:27.331Z,13.27
2023-04-15T11:23:08.261Z,14.00
2023-04-15T11:25:43.644Z,14.43
2023-04-15T11:28:11.514Z,14.83
2023-04-15T11:30:38.846Z,13.43
2023-04-15T11:33:10.097Z,14.27
2023-04-15T11:35:36.681Z,13.73
2023-04-15T11:38:10.069Z,13.60
2023-04-15T11:40:37.893Z,13.33
2023-04-15T11:43:10.809Z,13.63
2023-04-15T11:45:39.222Z,14.70
2023-04-15T11:48:10.603Z,14.47
2023-04-15T11:50:38.053Z,13.80
2023-04-15T11:53:08.329Z,15.00
2023-04-15T11:56:01.935Z,13.80
2023-04-15T11:58:30.581Z,12.63
2023-04-15T12:00:58.877Z,12.93
2023-04-15T12:03:27.557Z,13.17
2023-04-15T12:06:23.530Z,12.87
2023-04-15T12:09:09.289Z,14.20
2023-04-15T12:11:38.678Z,13.33
2023-04-15T12:14:31.207Z,12.70
2023-04-15T12:17:00.405Z,12.67
2023-04-15T12:19:35.736Z,12.60
2023-04-15T12:22:04.220Z,12.60
2023-04-15T12:24:35.920Z,13.10
2023-04-15T12:27:07.226Z,11.67
2023-04-15T12:29:34.902Z,12.80
2023-04-15T12:32:15.161Z,11.60
2023-04-15T12:34:45.716Z,11.17
2023-04-15T12:37:14.309Z,12.70
2023-04-15T12:39:42.926Z,11.50
2023-04-15T12:42:10.011Z,14.07
2023-04-15T12:44:37.436Z,14.77
2023-04-15T12:47:04.289Z,15.17
2023-04-15T12:49:31.158Z,15.50
2023-04-15T12:52:02.197Z,11.83
2023-04-15T12:54:30.236Z,12.50
2023-04-15T12:56:57.505Z,12.97
2023-04-15T12:59:24.405Z,13.13
2023-04-15T13:01:52.211Z,13.40
2023-04-15T13:04:20.271Z,12.87
2023-04-15T13:06:46.796Z,12.20
2023-04-15T13:09:13.307Z,12.50
2023-04-15T13:11:39.781Z,12.47
2023-04-15T13:14:08.738Z,12.83
2023-04-15T13:16:35.944Z,13.70
2023-04-15T13:19:03.649Z,14.87
2023-04-15T13:21:32.257Z,13.83
2023-04-15T13:23:58.746Z,13.37
2023-04-15T13:26:25.183Z,13.43
2023-04-15T13:28:51.659Z,14.43
2023-04-15T13:31:18.097Z,13.03
2023-04-15T13:33:44.739Z,12.03
2023-04-15T13:36:11.652Z,13.53
2023-04-15T13:38:38.148Z,12.83
2023-04-15T13:41:04.774Z,14.43
2023-04-15T13:43:33.685Z,13.67
2023-04-15T13:46:00.344Z,14.43
2023-04-15T13:48:26.910Z,15.50
2023-04-15T13:50:53.360Z,15.57
2023-04-15T13:53:19.838Z,16.27
2023-04-15T13:55:46.345Z,15.40
2023-04-15T13:58:13.005Z,15.00
2023-04-15T14:00:39.467Z,14.50
2023-04-15T14:03:06.068Z,14.97
2023-04-15T14:05:32.782Z,14.63
2023-04-15T14:08:00.119Z,14.23
2023-04-15T14:10:26.573Z,14.77
2023-04-15T14:12:53.140Z,16.43
2023-04-15T14:15:19.646Z,16.67
2023-04-15T14:17:46.173Z,16.60
2023-04-15T14:20:15.012Z,15.97
2023-04-15T14:22:43.044Z,14.77
2023-04-15T14:25:10.547Z,13.37
2023-04-15T14:27:39.844Z,13.03
2023-04-15T14:30:08.067Z,13.70
2023-04-15T14:32:34.558Z,13.27
2023-04-15T14:35:01.009Z,14.27
2023-04-15T14:37:27.562Z,16.63
2023-04-15T14:39:54.022Z,16.27
2023-04-15T14:42:21.640Z,17.83
2023-04-15T14:44:48.232Z,16.87
2023-04-15T14:47:14.742Z,16.50
2023-04-15T14:49:41.260Z,16.40
2023-04-15T14:52:07.759Z,16.67
2023-04-15T14:54:34.241Z,17.20
2023-04-15T14:57:01.994Z,16.50
2023-04-15T14:59:28.482Z,16.73
2023-04-15T15:01:55.026Z,17.07
2023-04-15T15:04:23.780Z,16.33
2023-04-15T15:06:50.871Z,16.23
2023-04-15T15:09:19.695Z,15.80
2023-04-15T15:11:46.173Z,15.87
2023-04-15T15:14:12.814Z,16.03
2023-04-15T15:16:39.256Z,16.23
2023-04-15T15:19:05.910Z,16.27
2023-04-15T15:21:32.555Z,16.00
2023-04-15T15:23:59.014Z,16.37
2023-04-15T15:26:25.605Z,15.37
2023-04-15T15:28:52.121Z,16.07
2023-04-15T15:31:18.700Z,15.47
2023-04-15T15:33:45.311Z,13.73
2023-04-15T15:36:11.923Z,14.63
2023-04-15T15:38:40.668Z,15.13
2023-04-15T15:41:07.087Z,15.53
2023-04-15T15:43:33.543Z,14.97
2023-04-15T15:46:01.147Z,15.20
2023-04-15T15:48:27.710Z,15.53
2023-04-15T15:50:54.175Z,14.80
2023-04-15T15:53:21.277Z,14.67
2023-04-15T15:55:48.383Z,14.83
2023-04-15T15:58:15.192Z,14.83
2023-04-15T16:00:41.848Z,15.63
2023-04-15T16:03:08.777Z,14.27
2023-04-15T16:05:36.081Z,15.27
2023-04-15T16:08:02.734Z,15.47
2023-04-15T16:10:29.302Z,14.87
2023-04-15T16:12:56.016Z,15.07
2023-04-15T16:15:23.967Z,14.93
2023-04-15T16:17:50.563Z,15.70
2023-04-15T16:20:17.261Z,18.23
2023-04-15T16:22:43.897Z,17.27
2023-04-15T16:25:10.645Z,28.83
2023-04-15T16:27:54.187Z,20.70
2023-04-15T16:30:24.111Z,16.10
2023-04-15T16:32:50.663Z,16.97
2023-04-15T16:35:17.245Z,17.13
2023-04-15T16:37:43.806Z,17.40
2023-04-15T16:40:10.702Z,16.10
2023-04-15T16:42:37.132Z,15.63
2023-04-15T16:45:03.893Z,15.43
2023-04-15T16:47:30.511Z,15.90
2023-04-15T16:49:58.004Z,16.20
2023-04-15T16:52:24.496Z,15.90
2023-04-15T16:54:51.016Z,15.67
2023-04-15T16:57:17.555Z,15.20
2023-04-15T16:59:44.713Z,16.57
2023-04-15T17:02:14.817Z,16.17
2023-04-15T17:04:42.382Z,17.33
2023-04-15T17:07:10.818Z,16.83
2023-04-15T17:09:39.245Z,16.40
2023-04-15T17:12:06.219Z,15.53
2023-04-15T17:14:33.376Z,14.63
2023-04-15T17:16:59.825Z,15.93
2023-04-15T17:29:56.262Z,14.60
2023-04-15T17:32:23.228Z,17.27
2023-04-15T17:34:51.354Z,15.27
2023-04-15T17:37:18.184Z,15.20
2023-04-15T17:39:44.824Z,15.40
2023-04-15T17:42:11.780Z,16.67
2023-04-15T17:44:38.302Z,14.53
2023-04-15T17:47:04.842Z,14.97
2023-04-15T17:49:31.501Z,16.07
2023-04-15T17:51:57.983Z,15.77
2023-04-15T17:54:24.442Z,16.03
2023-04-15T17:56:51.704Z,15.33
2023-04-15T17:59:18.391Z,14.70
2023-04-15T18:01:45.625Z,14.73
2023-04-15T18:04:12.598Z,15.40
2023-04-15T18:06:39.370Z,14.60
2023-04-15T18:09:06.731Z,17.47
2023-04-15T18:11:33.520Z,16.07
2023-04-15T18:14:02.155Z,14.90
2023-04-15T18:16:28.640Z,14.27
2023-04-15T18:18:55.173Z,15.43
2023-04-15T18:21:21.604Z,14.30
2023-04-15T18:23:48.051Z,14.00
2023-04-15T18:26:14.516Z,14.73
2023-04-15T18:28:41.167Z,14.50
2023-04-15T18:31:07.764Z,14.83
2023-04-15T18:33:35.769Z,15.20
2023-04-15T18:36:02.685Z,13.87
2023-04-15T18:38:29.257Z,15.63
2023-04-15T18:40:55.711Z,13.50
2023-04-15T18:43:22.156Z,15.33
2023-04-15T18:45:48.939Z,13.47
2023-04-15T18:48:16.014Z,13.83
2023-04-15T18:50:43.081Z,12.77
2023-04-15T18:53:09.616Z,13.17
2023-04-15T18:55:36.501Z,14.93
2023-04-15T18:58:08.585Z,14.40
2023-04-15T19:00:39.034Z,12.90
2023-04-15T19:03:06.422Z,13.60
2023-04-15T19:05:33.456Z,13.73
2023-04-15T19:07:59.951Z,14.87
2023-04-15T19:10:28.127Z,13.60
2023-04-15T19:12:55.503Z,14.33
2023-04-15T19:15:22.133Z,13.40
2023-04-15T19:17:48.678Z,13.50
2023-04-15T19:20:15.304Z,14.97
2023-04-15T19:22:43.115Z,13.50
2023-04-15T19:25:09.976Z,14.90
2023-04-15T19:27:38.155Z,16.70
2023-04-15T19:30:06.468Z,15.50
2023-04-15T19:32:33.007Z,15.67
2023-04-15T19:34:59.562Z,15.87
2023-04-15T19:37:26.097Z,15.10
2023-04-15T19:39:54.110Z,14.70
2023-04-15T19:42:20.651Z,14.93
2023-04-15T19:44:47.160Z,13.90
2023-04-15T19:47:13.675Z,14.97
2023-04-15T19:49:40.516Z,15.83
2023-04-15T19:52:07.109Z,15.50
2023-04-15T19:54:33.733Z,15.73
2023-04-15T19:57:01.516Z,15.27
2023-04-15T19:59:27.986Z,18.20
2023-04-15T20:01:54.513Z,15.77
2023-04-15T20:04:21.470Z,15.57
2023-04-15T20:06:48.458Z,16.47
2023-04-15T20:09:14.965Z,15.23
2023-04-15T20:12:46.927Z,16.13
2023-04-15T20:14:27.956Z,15.80
2023-04-15T20:16:54.412Z,16.20
2023-04-15T20:19:20.961Z,14.73
2023-04-15T20:21:47.535Z,14.23
2023-04-15T20:24:14.094Z,15.57
2023-04-15T20:26:40.923Z,15.73
2023-04-15T20:29:07.934Z,15.10
2023-04-15T20:31:35.169Z,15.23
2023-04-15T20:34:01.793Z,15.70
2023-04-15T20:36:28.353Z,16.43
2023-04-15T20:38:54.779Z,15.90
2023-04-15T20:41:22.145Z,16.07
2023-04-15T20:43:48.882Z,16.70
2023-04-15T20:46:21.180Z,16.97
2023-04-15T20:48:49.307Z,15.67
2023-04-15T20:51:15.885Z,15.47
2023-04-15T20:53:42.631Z,17.70
2023-04-15T20:56:09.193Z,17.50
2023-04-15T20:58:36.207Z,16.87
2023-04-15T21:01:02.757Z,17.83
2023-04-15T21:03:29.416Z,16.30
2023-04-15T21:05:56.115Z,15.10
2023-04-15T21:08:29.173Z,15.77
2023-04-15T21:10:56.824Z,17.07
2023-04-15T21:13:23.788Z,16.27
2023-04-15T21:15:53.385Z,17.53
2023-04-15T21:18:21.400Z,15.97
2023-04-15T21:20:56.622Z,18.67
2023-04-15T21:23:23.214Z,15.07
2023-04-15T21:25:49.910Z,15.80
2023-04-15T21:28:16.433Z,17.13
2023-04-15T21:30:43.000Z,15.83
2023-04-15T21:33:09.877Z,14.83
2023-04-15T21:35:36.380Z,17.40
2023-04-15T21:38:03.121Z,16.60
2023-04-15T21:40:30.030Z,15.27
2023-04-15T21:42:56.470Z,15.70
2023-04-15T21:45:23.398Z,14.90
2023-04-15T21:48:06.218Z,16.90
2023-04-15T21:50:38.316Z,15.30
2023-04-15T21:53:06.690Z,15.60
2023-04-15T21:55:33.220Z,14.47
2023-04-15T21:57:59.717Z,17.27
2023-04-15T22:00:26.218Z,16.27
2023-04-15T22:02:52.849Z,18.07
2023-04-15T22:05:19.426Z,15.77
2023-04-15T22:07:45.921Z,16.37
2023-04-15T22:10:12.453Z,17.30
2023-04-15T22:12:41.914Z,16.37
2023-04-15T22:15:08.833Z,17.63
2023-04-15T22:17:35.480Z,15.40
2023-04-15T22:20:02.235Z,15.33
2023-04-15T22:22:43.416Z,16.27
2023-04-15T22:25:11.107Z,15.77
2023-04-15T22:27:37.598Z,16.00
2023-04-15T22:30:04.835Z,15.53
2023-04-15T22:32:31.352Z,15.80
2023-04-15T22:34:57.834Z,16.57
2023-04-15T22:37:24.331Z,16.40
2023-04-15T22:39:52.039Z,16.43
2023-04-15T22:42:18.544Z,16.27
2023-04-15T22:44:45.005Z,16.87
2023-04-15T22:47:11.495Z,15.10
2023-04-15T22:49:37.953Z,17.30
2023-04-15T22:52:04.595Z,17.60
2023-04-15T22:54:31.255Z,15.77
2023-04-15T22:56:58.052Z,16.97
2023-04-15T22:59:24.615Z,16.63
2023-04-15T23:01:51.487Z,18.20
2023-04-15T23:04:27.240Z,18.50
2023-04-15T23:06:54.555Z,16.67
2023-04-15T23:09:21.503Z,18.47
2023-04-15T23:11:48.059Z,18.23
2023-04-15T23:14:14.492Z,18.27
2023-04-15T23:16:41.251Z,17.47
2023-04-15T23:19:08.255Z,17.43
2023-04-15T23:21:35.067Z,19.47
2023-04-15T23:24:01.514Z,17.13
2023-04-15T23:26:28.189Z,20.60
2023-04-15T23:28:54.742Z,19.40
2023-04-15T23:31:21.265Z,17.97
2023-04-15T23:33:47.788Z,17.63
2023-04-15T23:36:14.286Z,17.27
2023-04-15T23:38:40.792Z,18.80
2023-04-15T23:41:07.295Z,18.37
2023-04-15T23:43:33.732Z,17.80
2023-04-15T23:46:00.279Z,18.07
2023-04-15T23:48:26.877Z,18.87
2023-04-15T23:50:53.385Z,17.77
2023-04-15T23:53:19.845Z,18.97
2023-04-15T23:55:46.682Z,19.40
2023-04-15T23:58:13.152Z,19.23
